TAF Text Data
IDs:
Format:
Raw Decoded Include METAR

Data at: 1316 UTC 17 Dec 2018

KSBY 171140Z 1712/1812 29006KT P6SM BKN040
  FM171300 28010KT P6SM SCT040
  FM171600 28012G20KT P6SM SKC
  FM172300 31010KT P6SM SCT040
  FM180700 31008KT P6SM SKC